Lake Mattawa, Massachusetts
Current Conditions -  °F | °C
As of 3:52 PM on Thursday 23 Oct 2014 (Local Time) from KORE Reporting Station
Overcast Overcast  
Wind Chill: 51°   Ceiling: 2100
Heat Index: 51°   Visibility: 10mi
Dew Point: 48°   Wind: 12mph
Humidity: 89%   Direction: 340°NNW
Pressure: 29.69"   Gusts: NA
Location:  42.614°N, 72.3011°W
Report Text: KORE 231952Z AUTO 34010KT 10SM SCT015 OVC021 11/09 A2969 RMK AO2 RAE05B36E50 SLP058 P0001 T01060089
Loading
Personal Weather Stations






























Interactive Weather Map
Tropical Storm Tracking
New forecast layout! Learn more

10-Day Weather Forecast

Advertisements
Track Severe Weather on mobile